Shrewsbury, Massachusetts
Current Conditions -  °F | °C
As of 5:54 AM on Monday 22 Dec 2014 (Local Time) from KORH Reporting Station
Overcast Overcast  
Wind Chill: 23°   Ceiling: 700
Heat Index: 30°   Visibility: 10mi
Dew Point: 25°   Wind: 7mph
Humidity: 82%   Direction: 30°NNE
Pressure: 30.33"   Gusts: NA
Location:  42.3°N, 71.71°W
Report Text: KORH 221054Z AUTO 03006KT 10SM BKN007 OVC013 M01/M04 A3033 RMK AO2 CIG 006V011 SLP284 T10111039
Loading
Personal Weather Stations






























Interactive Weather Map New forecast layout! Learn more

10-Day Weather Forecast

Advertisements
Track Severe Weather on mobile